sensor_id;sensor_type;location;lat;lon;timestamp;temperature;humidity
24252;DHT22;12380;51.118;4.176;2022-10-18T00:00:36;16.70;99.90
24252;DHT22;12380;51.118;4.176;2022-10-18T00:03:01;16.80;99.90
24252;DHT22;12380;51.118;4.176;2022-10-18T00:05:27;16.80;99.90
24252;DHT22;12380;51.118;4.176;2022-10-18T00:07:54;16.80;99.90
24252;DHT22;12380;51.118;4.176;2022-10-18T00:10:19;16.80;99.90
24252;DHT22;12380;51.118;4.176;2022-10-18T00:12:45;16.80;99.90
24252;DHT22;12380;51.118;4.176;2022-10-18T00:15:10;16.90;99.90
24252;DHT22;12380;51.118;4.176;2022-10-18T00:17:37;16.90;99.90
24252;DHT22;12380;51.118;4.176;2022-10-18T00:20:04;16.90;99.90
24252;DHT22;12380;51.118;4.176;2022-10-18T00:22:30;16.90;99.90
24252;DHT22;12380;51.118;4.176;2022-10-18T00:24:56;16.90;99.90
24252;DHT22;12380;51.118;4.176;2022-10-18T00:27:21;16.90;99.90
24252;DHT22;12380;51.118;4.176;2022-10-18T00:29:52;16.90;99.90
24252;DHT22;12380;51.118;4.176;2022-10-18T00:32:18;16.90;99.90
24252;DHT22;12380;51.118;4.176;2022-10-18T00:34:44;17.00;99.90
24252;DHT22;12380;51.118;4.176;2022-10-18T00:37:09;17.00;99.90
24252;DHT22;12380;51.118;4.176;2022-10-18T00:39:35;17.00;99.90
24252;DHT22;12380;51.118;4.176;2022-10-18T00:42:01;17.00;99.90
24252;DHT22;12380;51.118;4.176;2022-10-18T00:47:03;17.00;99.90
24252;DHT22;12380;51.118;4.176;2022-10-18T00:49:31;17.00;99.90
24252;DHT22;12380;51.118;4.176;2022-10-18T00:52:05;16.90;99.90
24252;DHT22;12380;51.118;4.176;2022-10-18T00:54:33;16.90;99.90
24252;DHT22;12380;51.118;4.176;2022-10-18T00:57:00;16.90;99.90
24252;DHT22;12380;51.118;4.176;2022-10-18T00:59:27;16.80;99.90
24252;DHT22;12380;51.118;4.176;2022-10-18T01:01:53;16.80;99.90
24252;DHT22;12380;51.118;4.176;2022-10-18T01:04:19;16.80;99.90
24252;DHT22;12380;51.118;4.176;2022-10-18T01:07:08;16.80;99.90
24252;DHT22;12380;51.118;4.176;2022-10-18T01:19:38;16.80;99.90
24252;DHT22;12380;51.118;4.176;2022-10-18T01:22:14;16.70;99.90
24252;DHT22;12380;51.118;4.176;2022-10-18T01:35:51;16.70;99.90
24252;DHT22;12380;51.118;4.176;2022-10-18T01:38:18;16.70;99.90
24252;DHT22;12380;51.118;4.176;2022-10-18T01:40:47;16.70;99.90
24252;DHT22;12380;51.118;4.176;2022-10-18T01:43:15;16.70;99.90
24252;DHT22;12380;51.118;4.176;2022-10-18T01:45:42;16.70;99.90
24252;DHT22;12380;51.118;4.176;2022-10-18T01:48:08;16.70;99.90
24252;DHT22;12380;51.118;4.176;2022-10-18T01:50:33;16.80;99.90
24252;DHT22;12380;51.118;4.176;2022-10-18T01:53:00;16.80;99.90
24252;DHT22;12380;51.118;4.176;2022-10-18T01:55:48;16.80;99.90
24252;DHT22;12380;51.118;4.176;2022-10-18T01:58:24;16.80;99.90
24252;DHT22;12380;51.118;4.176;2022-10-18T02:00:59;16.80;99.90
24252;DHT22;12380;51.118;4.176;2022-10-18T02:03:27;16.80;99.90
24252;DHT22;12380;51.118;4.176;2022-10-18T02:05:58;16.80;99.90
24252;DHT22;12380;51.118;4.176;2022-10-18T02:08:43;16.90;99.90
24252;DHT22;12380;51.118;4.176;2022-10-18T02:11:14;17.00;99.90
24252;DHT22;12380;51.118;4.176;2022-10-18T02:13:47;16.90;99.90
24252;DHT22;12380;51.118;4.176;2022-10-18T02:16:16;16.90;99.90
24252;DHT22;12380;51.118;4.176;2022-10-18T02:18:48;16.80;99.90
24252;DHT22;12380;51.118;4.176;2022-10-18T02:21:15;16.80;99.90
24252;DHT22;12380;51.118;4.176;2022-10-18T02:23:42;16.90;99.90
24252;DHT22;12380;51.118;4.176;2022-10-18T02:26:09;16.80;99.90
24252;DHT22;12380;51.118;4.176;2022-10-18T02:28:34;16.80;99.90
24252;DHT22;12380;51.118;4.176;2022-10-18T02:31:13;16.80;99.90
24252;DHT22;12380;51.118;4.176;2022-10-18T02:33:50;16.80;99.90
24252;DHT22;12380;51.118;4.176;2022-10-18T02:36:18;16.80;99.90
24252;DHT22;12380;51.118;4.176;2022-10-18T02:38:47;16.80;99.90
24252;DHT22;12380;51.118;4.176;2022-10-18T02:41:24;16.80;99.90
24252;DHT22;12380;51.118;4.176;2022-10-18T02:43:51;16.80;99.90
24252;DHT22;12380;51.118;4.176;2022-10-18T02:46:17;16.80;99.90
24252;DHT22;12380;51.118;4.176;2022-10-18T02:48:42;16.80;99.90
24252;DHT22;12380;51.118;4.176;2022-10-18T02:51:08;16.70;99.90
24252;DHT22;12380;51.118;4.176;2022-10-18T02:53:34;16.70;99.90
24252;DHT22;12380;51.118;4.176;2022-10-18T02:55:59;16.70;99.90
24252;DHT22;12380;51.118;4.176;2022-10-18T02:58:25;16.70;99.90
24252;DHT22;12380;51.118;4.176;2022-10-18T03:00:51;16.70;99.90
24252;DHT22;12380;51.118;4.176;2022-10-18T03:03:17;16.60;99.90
24252;DHT22;12380;51.118;4.176;2022-10-18T03:05:47;16.60;99.90
24252;DHT22;12380;51.118;4.176;2022-10-18T03:08:13;16.60;99.90
24252;DHT22;12380;51.118;4.176;2022-10-18T03:10:38;16.60;99.90
24252;DHT22;12380;51.118;4.176;2022-10-18T03:13:04;16.40;99.90
24252;DHT22;12380;51.118;4.176;2022-10-18T03:15:31;16.40;99.90
24252;DHT22;12380;51.118;4.176;2022-10-18T03:17:57;16.30;99.90
24252;DHT22;12380;51.118;4.176;2022-10-18T03:20:22;16.30;99.90
24252;DHT22;12380;51.118;4.176;2022-10-18T03:22:51;16.40;99.90
24252;DHT22;12380;51.118;4.176;2022-10-18T03:25:16;16.40;99.90
24252;DHT22;12380;51.118;4.176;2022-10-18T03:27:42;16.40;99.90
24252;DHT22;12380;51.118;4.176;2022-10-18T03:30:07;16.40;99.90
24252;DHT22;12380;51.118;4.176;2022-10-18T03:32:36;16.40;99.90
24252;DHT22;12380;51.118;4.176;2022-10-18T03:35:05;16.40;99.90
24252;DHT22;12380;51.118;4.176;2022-10-18T03:37:31;16.40;99.90
24252;DHT22;12380;51.118;4.176;2022-10-18T03:39:56;16.40;99.90
24252;DHT22;12380;51.118;4.176;2022-10-18T03:42:22;16.40;99.90
24252;DHT22;12380;51.118;4.176;2022-10-18T03:44:48;16.40;99.90
24252;DHT22;12380;51.118;4.176;2022-10-18T03:47:14;16.40;99.90
24252;DHT22;12380;51.118;4.176;2022-10-18T03:49:39;16.40;99.90
24252;DHT22;12380;51.118;4.176;2022-10-18T03:52:06;16.40;99.90
24252;DHT22;12380;51.118;4.176;2022-10-18T03:54:31;16.40;99.90
24252;DHT22;12380;51.118;4.176;2022-10-18T03:56:57;16.50;99.90
24252;DHT22;12380;51.118;4.176;2022-10-18T03:59:22;16.50;99.90
24252;DHT22;12380;51.118;4.176;2022-10-18T04:01:48;16.50;99.90
24252;DHT22;12380;51.118;4.176;2022-10-18T04:04:14;16.50;99.90
24252;DHT22;12380;51.118;4.176;2022-10-18T04:06:39;16.50;99.90
24252;DHT22;12380;51.118;4.176;2022-10-18T04:09:05;16.60;99.90
24252;DHT22;12380;51.118;4.176;2022-10-18T04:11:31;16.60;99.90
24252;DHT22;12380;51.118;4.176;2022-10-18T04:13:56;16.60;99.90
24252;DHT22;12380;51.118;4.176;2022-10-18T04:16:22;16.50;99.90
24252;DHT22;12380;51.118;4.176;2022-10-18T04:18:48;16.50;99.90
24252;DHT22;12380;51.118;4.176;2022-10-18T04:21:14;16.50;99.90
24252;DHT22;12380;51.118;4.176;2022-10-18T04:23:39;16.50;99.90
24252;DHT22;12380;51.118;4.176;2022-10-18T04:26:05;16.50;99.90
24252;DHT22;12380;51.118;4.176;2022-10-18T04:28:34;16.50;99.90
24252;DHT22;12380;51.118;4.176;2022-10-18T04:31:04;16.50;99.90
24252;DHT22;12380;51.118;4.176;2022-10-18T04:33:29;16.50;99.90
24252;DHT22;12380;51.118;4.176;2022-10-18T04:35:55;16.50;99.90
24252;DHT22;12380;51.118;4.176;2022-10-18T04:38:20;16.50;99.90
24252;DHT22;12380;51.118;4.176;2022-10-18T04:40:46;16.50;99.90
24252;DHT22;12380;51.118;4.176;2022-10-18T04:43:11;16.50;99.90
24252;DHT22;12380;51.118;4.176;2022-10-18T04:45:37;16.50;99.90
24252;DHT22;12380;51.118;4.176;2022-10-18T04:48:03;16.40;99.90
24252;DHT22;12380;51.118;4.176;2022-10-18T04:50:29;16.40;99.90
24252;DHT22;12380;51.118;4.176;2022-10-18T04:52:54;16.40;99.90
24252;DHT22;12380;51.118;4.176;2022-10-18T04:55:20;16.40;99.90
24252;DHT22;12380;51.118;4.176;2022-10-18T04:57:45;16.30;99.90
24252;DHT22;12380;51.118;4.176;2022-10-18T05:00:11;16.30;99.90
24252;DHT22;12380;51.118;4.176;2022-10-18T05:02:37;16.30;99.90
24252;DHT22;12380;51.118;4.176;2022-10-18T05:05:05;16.20;99.90
24252;DHT22;12380;51.118;4.176;2022-10-18T05:07:30;16.20;99.90
24252;DHT22;12380;51.118;4.176;2022-10-18T05:09:56;16.10;99.90
24252;DHT22;12380;51.118;4.176;2022-10-18T05:12:22;16.00;99.90
24252;DHT22;12380;51.118;4.176;2022-10-18T05:14:48;15.90;99.90
24252;DHT22;12380;51.118;4.176;2022-10-18T05:17:21;15.90;99.90
24252;DHT22;12380;51.118;4.176;2022-10-18T05:19:47;15.90;99.90
24252;DHT22;12380;51.118;4.176;2022-10-18T05:22:13;15.90;99.90
24252;DHT22;12380;51.118;4.176;2022-10-18T05:24:38;15.80;99.90
24252;DHT22;12380;51.118;4.176;2022-10-18T05:27:04;15.80;99.90
24252;DHT22;12380;51.118;4.176;2022-10-18T05:29:32;15.80;99.90
24252;DHT22;12380;51.118;4.176;2022-10-18T05:31:57;15.70;99.90
24252;DHT22;12380;51.118;4.176;2022-10-18T05:34:23;15.70;99.90
24252;DHT22;12380;51.118;4.176;2022-10-18T05:36:49;15.80;99.90
24252;DHT22;12380;51.118;4.176;2022-10-18T05:39:15;15.70;99.90
24252;DHT22;12380;51.118;4.176;2022-10-18T05:41:41;15.70;99.90
24252;DHT22;12380;51.118;4.176;2022-10-18T05:44:06;15.70;99.90
24252;DHT22;12380;51.118;4.176;2022-10-18T05:46:32;15.70;99.90
24252;DHT22;12380;51.118;4.176;2022-10-18T05:48:59;15.70;99.90
24252;DHT22;12380;51.118;4.176;2022-10-18T05:51:24;15.70;99.90
24252;DHT22;12380;51.118;4.176;2022-10-18T05:53:50;15.60;99.90
24252;DHT22;12380;51.118;4.176;2022-10-18T05:56:17;15.60;99.90
24252;DHT22;12380;51.118;4.176;2022-10-18T05:58:42;15.60;99.90
24252;DHT22;12380;51.118;4.176;2022-10-18T06:01:08;15.50;99.90
24252;DHT22;12380;51.118;4.176;2022-10-18T06:03:34;15.50;99.90
24252;DHT22;12380;51.118;4.176;2022-10-18T06:06:08;15.40;99.90
24252;DHT22;12380;51.118;4.176;2022-10-18T06:08:34;15.30;99.90
24252;DHT22;12380;51.118;4.176;2022-10-18T06:11:07;15.20;99.90
24252;DHT22;12380;51.118;4.176;2022-10-18T06:13:33;15.20;99.90
24252;DHT22;12380;51.118;4.176;2022-10-18T06:15:59;15.20;99.90
24252;DHT22;12380;51.118;4.176;2022-10-18T06:18:24;15.10;99.90
24252;DHT22;12380;51.118;4.176;2022-10-18T06:20:57;15.00;99.90
24252;DHT22;12380;51.118;4.176;2022-10-18T06:23:23;15.00;99.90
24252;DHT22;12380;51.118;4.176;2022-10-18T06:25:49;15.00;99.90
24252;DHT22;12380;51.118;4.176;2022-10-18T06:28:15;15.00;99.90
24252;DHT22;12380;51.118;4.176;2022-10-18T06:30:41;14.90;99.90
24252;DHT22;12380;51.118;4.176;2022-10-18T06:33:08;14.90;99.90
24252;DHT22;12380;51.118;4.176;2022-10-18T06:35:36;14.90;99.90
24252;DHT22;12380;51.118;4.176;2022-10-18T06:38:02;14.80;99.90
24252;DHT22;12380;51.118;4.176;2022-10-18T06:40:27;14.80;99.90
24252;DHT22;12380;51.118;4.176;2022-10-18T06:42:55;14.80;99.90
24252;DHT22;12380;51.118;4.176;2022-10-18T06:45:20;14.80;99.90
24252;DHT22;12380;51.118;4.176;2022-10-18T06:47:46;14.70;99.90
24252;DHT22;12380;51.118;4.176;2022-10-18T06:50:14;14.60;99.90
24252;DHT22;12380;51.118;4.176;2022-10-18T06:52:41;14.60;99.90
24252;DHT22;12380;51.118;4.176;2022-10-18T06:55:06;14.60;99.90
24252;DHT22;12380;51.118;4.176;2022-10-18T06:57:32;14.70;99.90
24252;DHT22;12380;51.118;4.176;2022-10-18T06:59:58;14.70;99.90
24252;DHT22;12380;51.118;4.176;2022-10-18T07:02:26;14.70;99.90
24252;DHT22;12380;51.118;4.176;2022-10-18T07:04:51;14.70;99.90
24252;DHT22;12380;51.118;4.176;2022-10-18T07:07:18;14.70;99.90
24252;DHT22;12380;51.118;4.176;2022-10-18T07:09:45;14.70;99.90
24252;DHT22;12380;51.118;4.176;2022-10-18T07:12:13;14.60;99.90
24252;DHT22;12380;51.118;4.176;2022-10-18T07:14:42;14.60;99.90
24252;DHT22;12380;51.118;4.176;2022-10-18T07:17:07;14.60;99.90
24252;DHT22;12380;51.118;4.176;2022-10-18T07:19:33;14.70;99.90
24252;DHT22;12380;51.118;4.176;2022-10-18T07:21:59;14.70;99.90
24252;DHT22;12380;51.118;4.176;2022-10-18T07:24:25;14.70;99.90
24252;DHT22;12380;51.118;4.176;2022-10-18T07:26:56;14.70;99.90
24252;DHT22;12380;51.118;4.176;2022-10-18T07:29:21;14.70;99.90
24252;DHT22;12380;51.118;4.176;2022-10-18T07:31:47;14.70;99.90
24252;DHT22;12380;51.118;4.176;2022-10-18T07:34:12;14.70;99.90
24252;DHT22;12380;51.118;4.176;2022-10-18T07:36:38;14.80;99.90
24252;DHT22;12380;51.118;4.176;2022-10-18T07:39:04;15.00;99.90
24252;DHT22;12380;51.118;4.176;2022-10-18T07:41:29;15.10;99.90
24252;DHT22;12380;51.118;4.176;2022-10-18T07:43:57;15.30;99.90
24252;DHT22;12380;51.118;4.176;2022-10-18T07:46:23;15.40;99.90
24252;DHT22;12380;51.118;4.176;2022-10-18T07:48:49;15.40;99.90
24252;DHT22;12380;51.118;4.176;2022-10-18T07:51:14;15.50;99.90
24252;DHT22;12380;51.118;4.176;2022-10-18T07:53:40;15.60;99.90
24252;DHT22;12380;51.118;4.176;2022-10-18T07:56:10;15.80;99.90
24252;DHT22;12380;51.118;4.176;2022-10-18T07:58:42;16.30;99.90
24252;DHT22;12380;51.118;4.176;2022-10-18T08:01:08;16.50;99.90
24252;DHT22;12380;51.118;4.176;2022-10-18T08:03:35;16.50;99.90
24252;DHT22;12380;51.118;4.176;2022-10-18T08:06:01;16.60;99.90
24252;DHT22;12380;51.118;4.176;2022-10-18T08:08:28;16.40;99.90
24252;DHT22;12380;51.118;4.176;2022-10-18T08:10:54;16.60;99.90
24252;DHT22;12380;51.118;4.176;2022-10-18T08:13:19;16.90;99.90
24252;DHT22;12380;51.118;4.176;2022-10-18T08:15:46;17.20;99.90
24252;DHT22;12380;51.118;4.176;2022-10-18T08:18:12;17.30;99.90
24252;DHT22;12380;51.118;4.176;2022-10-18T08:20:43;17.40;99.90
24252;DHT22;12380;51.118;4.176;2022-10-18T08:23:10;17.70;99.90
24252;DHT22;12380;51.118;4.176;2022-10-18T08:25:36;17.80;99.90
24252;DHT22;12380;51.118;4.176;2022-10-18T08:28:02;18.20;99.90
24252;DHT22;12380;51.118;4.176;2022-10-18T08:30:27;19.40;99.90
24252;DHT22;12380;51.118;4.176;2022-10-18T08:32:56;19.80;99.90
24252;DHT22;12380;51.118;4.176;2022-10-18T08:35:22;21.20;99.90
24252;DHT22;12380;51.118;4.176;2022-10-18T08:37:50;22.00;99.90
24252;DHT22;12380;51.118;4.176;2022-10-18T08:40:16;22.50;99.90
24252;DHT22;12380;51.118;4.176;2022-10-18T08:45:08;23.50;99.90
24252;DHT22;12380;51.118;4.176;2022-10-18T08:47:36;24.10;99.90
24252;DHT22;12380;51.118;4.176;2022-10-18T08:50:05;24.80;99.90
24252;DHT22;12380;51.118;4.176;2022-10-18T08:57:45;24.60;99.90
24252;DHT22;12380;51.118;4.176;2022-10-18T09:00:17;24.30;99.90
24252;DHT22;12380;51.118;4.176;2022-10-18T09:05:21;25.00;99.90
24252;DHT22;12380;51.118;4.176;2022-10-18T09:07:56;24.00;99.90
24252;DHT22;12380;51.118;4.176;2022-10-18T09:16:02;25.20;99.90
24252;DHT22;12380;51.118;4.176;2022-10-18T09:21:19;25.60;99.90
24252;DHT22;12380;51.118;4.176;2022-10-18T09:23:48;25.50;99.90
24252;DHT22;12380;51.118;4.176;2022-10-18T09:26:15;24.80;99.90
24252;DHT22;12380;51.118;4.176;2022-10-18T09:28:50;24.80;99.90
24252;DHT22;12380;51.118;4.176;2022-10-18T09:31:23;24.90;99.90
24252;DHT22;12380;51.118;4.176;2022-10-18T09:34:01;25.00;99.90
24252;DHT22;12380;51.118;4.176;2022-10-18T09:36:33;25.40;99.90
24252;DHT22;12380;51.118;4.176;2022-10-18T09:39:14;24.90;99.90
24252;DHT22;12380;51.118;4.176;2022-10-18T09:41:46;24.10;99.90
24252;DHT22;12380;51.118;4.176;2022-10-18T09:46:49;23.40;99.90
24252;DHT22;12380;51.118;4.176;2022-10-18T09:49:59;23.80;99.90
24252;DHT22;12380;51.118;4.176;2022-10-18T09:52:06;23.20;99.90
24252;DHT22;12380;51.118;4.176;2022-10-18T09:54:36;22.80;99.90
24252;DHT22;12380;51.118;4.176;2022-10-18T09:57:11;23.40;99.90
24252;DHT22;12380;51.118;4.176;2022-10-18T09:59:40;23.30;99.90
24252;DHT22;12380;51.118;4.176;2022-10-18T10:02:08;23.10;99.90
24252;DHT22;12380;51.118;4.176;2022-10-18T10:04:36;24.00;99.90
24252;DHT22;12380;51.118;4.176;2022-10-18T10:07:02;24.30;99.90
24252;DHT22;12380;51.118;4.176;2022-10-18T10:09:36;23.90;99.90
24252;DHT22;12380;51.118;4.176;2022-10-18T10:12:21;24.20;99.90
24252;DHT22;12380;51.118;4.176;2022-10-18T10:14:49;24.30;99.90
24252;DHT22;12380;51.118;4.176;2022-10-18T10:17:21;24.30;99.90
24252;DHT22;12380;51.118;4.176;2022-10-18T10:22:37;25.00;99.90
24252;DHT22;12380;51.118;4.176;2022-10-18T10:25:04;25.40;99.90
24252;DHT22;12380;51.118;4.176;2022-10-18T10:29:57;24.50;99.90
24252;DHT22;12380;51.118;4.176;2022-10-18T10:32:28;24.90;99.90
24252;DHT22;12380;51.118;4.176;2022-10-18T10:34:54;25.60;99.90
24252;DHT22;12380;51.118;4.176;2022-10-18T10:40:11;25.50;99.90
24252;DHT22;12380;51.118;4.176;2022-10-18T10:42:48;26.40;99.90
24252;DHT22;12380;51.118;4.176;2022-10-18T10:45:15;26.80;99.90
24252;DHT22;12380;51.118;4.176;2022-10-18T10:47:40;27.10;99.90
24252;DHT22;12380;51.118;4.176;2022-10-18T10:50:09;26.90;99.90
24252;DHT22;12380;51.118;4.176;2022-10-18T10:52:36;27.00;99.90
24252;DHT22;12380;51.118;4.176;2022-10-18T10:55:03;26.60;99.90
24252;DHT22;12380;51.118;4.176;2022-10-18T10:57:29;26.10;99.90
24252;DHT22;12380;51.118;4.176;2022-10-18T10:59:56;25.80;99.90
24252;DHT22;12380;51.118;4.176;2022-10-18T11:02:34;25.70;99.90
24252;DHT22;12380;51.118;4.176;2022-10-18T11:05:21;25.90;99.90
24252;DHT22;12380;51.118;4.176;2022-10-18T11:07:47;26.20;99.90
24252;DHT22;12380;51.118;4.176;2022-10-18T11:10:14;27.00;99.90
24252;DHT22;12380;51.118;4.176;2022-10-18T11:23:18;25.50;99.90
24252;DHT22;12380;51.118;4.176;2022-10-18T11:25:24;25.30;99.90
24252;DHT22;12380;51.118;4.176;2022-10-18T11:27:59;25.50;99.90
24252;DHT22;12380;51.118;4.176;2022-10-18T11:35:37;26.10;99.90
24252;DHT22;12380;51.118;4.176;2022-10-18T11:43:20;26.50;99.90
24252;DHT22;12380;51.118;4.176;2022-10-18T11:53:44;26.50;99.90
24252;DHT22;12380;51.118;4.176;2022-10-18T11:56:33;25.80;99.90
24252;DHT22;12380;51.118;4.176;2022-10-18T12:02:10;26.40;99.90
24252;DHT22;12380;51.118;4.176;2022-10-18T12:04:35;26.40;99.90
24252;DHT22;12380;51.118;4.176;2022-10-18T12:07:04;27.00;99.90
24252;DHT22;12380;51.118;4.176;2022-10-18T12:09:37;27.00;99.90
24252;DHT22;12380;51.118;4.176;2022-10-18T12:12:08;27.40;99.90
24252;DHT22;12380;51.118;4.176;2022-10-18T12:14:50;26.90;99.90
24252;DHT22;12380;51.118;4.176;2022-10-18T12:17:35;27.20;99.90
24252;DHT22;12380;51.118;4.176;2022-10-18T12:20:03;26.00;99.90
24252;DHT22;12380;51.118;4.176;2022-10-18T12:22:37;25.40;99.90
24252;DHT22;12380;51.118;4.176;2022-10-18T12:25:09;25.60;99.90
24252;DHT22;12380;51.118;4.176;2022-10-18T12:27:38;25.80;99.90
24252;DHT22;12380;51.118;4.176;2022-10-18T12:30:13;26.20;99.90
24252;DHT22;12380;51.118;4.176;2022-10-18T12:32:42;26.50;99.90
24252;DHT22;12380;51.118;4.176;2022-10-18T12:35:12;27.50;99.90
24252;DHT22;12380;51.118;4.176;2022-10-18T12:42:44;28.40;99.90
24252;DHT22;12380;51.118;4.176;2022-10-18T12:47:58;27.50;99.90
24252;DHT22;12380;51.118;4.176;2022-10-18T12:55:41;28.40;99.90
24252;DHT22;12380;51.118;4.176;2022-10-18T13:16:08;27.70;99.90
24252;DHT22;12380;51.118;4.176;2022-10-18T13:21:15;27.60;99.90
24252;DHT22;12380;51.118;4.176;2022-10-18T13:23:58;26.30;99.90
24252;DHT22;12380;51.118;4.176;2022-10-18T13:34:29;26.90;99.90
24252;DHT22;12380;51.118;4.176;2022-10-18T13:39:22;27.80;99.90
24252;DHT22;12380;51.118;4.176;2022-10-18T13:49:32;27.40;99.90
24252;DHT22;12380;51.118;4.176;2022-10-18T14:00:16;27.90;99.90
24252;DHT22;12380;51.118;4.176;2022-10-18T14:08:18;27.30;99.90
24252;DHT22;12380;51.118;4.176;2022-10-18T14:13:16;26.60;99.90
24252;DHT22;12380;51.118;4.176;2022-10-18T14:15:43;27.00;99.90
24252;DHT22;12380;51.118;4.176;2022-10-18T14:18:12;27.00;99.90
24252;DHT22;12380;51.118;4.176;2022-10-18T14:20:43;27.30;99.90
24252;DHT22;12380;51.118;4.176;2022-10-18T14:23:14;27.10;99.90
24252;DHT22;12380;51.118;4.176;2022-10-18T14:25:41;27.00;99.90
24252;DHT22;12380;51.118;4.176;2022-10-18T14:30:35;26.80;99.90
24252;DHT22;12380;51.118;4.176;2022-10-18T14:33:01;26.50;99.90
24252;DHT22;12380;51.118;4.176;2022-10-18T14:35:28;26.70;99.90
24252;DHT22;12380;51.118;4.176;2022-10-18T14:37:54;27.00;99.90
24252;DHT22;12380;51.118;4.176;2022-10-18T14:43:09;27.10;99.90
24252;DHT22;12380;51.118;4.176;2022-10-18T14:45:36;26.10;99.90
24252;DHT22;12380;51.118;4.176;2022-10-18T14:51:00;26.20;99.90
24252;DHT22;12380;51.118;4.176;2022-10-18T14:53:32;26.00;99.90
24252;DHT22;12380;51.118;4.176;2022-10-18T14:56:01;25.80;99.90
24252;DHT22;12380;51.118;4.176;2022-10-18T14:58:30;25.60;99.90
24252;DHT22;12380;51.118;4.176;2022-10-18T15:00:57;25.50;99.90
24252;DHT22;12380;51.118;4.176;2022-10-18T15:03:25;25.80;99.90
24252;DHT22;12380;51.118;4.176;2022-10-18T15:05:57;25.30;99.90
24252;DHT22;12380;51.118;4.176;2022-10-18T15:08:29;24.40;99.90
24252;DHT22;12380;51.118;4.176;2022-10-18T15:10:57;24.50;99.90
24252;DHT22;12380;51.118;4.176;2022-10-18T15:13:22;24.20;99.90
24252;DHT22;12380;51.118;4.176;2022-10-18T15:15:50;24.00;99.90
24252;DHT22;12380;51.118;4.176;2022-10-18T15:18:20;23.70;99.90
24252;DHT22;12380;51.118;4.176;2022-10-18T15:21:05;23.70;99.90
24252;DHT22;12380;51.118;4.176;2022-10-18T15:23:31;23.50;99.90
24252;DHT22;12380;51.118;4.176;2022-10-18T15:26:19;23.00;99.90
24252;DHT22;12380;51.118;4.176;2022-10-18T15:28:46;22.80;99.90
24252;DHT22;12380;51.118;4.176;2022-10-18T15:33:47;22.10;99.90
24252;DHT22;12380;51.118;4.176;2022-10-18T15:36:19;21.90;99.90
24252;DHT22;12380;51.118;4.176;2022-10-18T15:38:48;21.80;99.90
24252;DHT22;12380;51.118;4.176;2022-10-18T15:44:05;21.40;99.90
24252;DHT22;12380;51.118;4.176;2022-10-18T15:46:31;21.40;99.90
24252;DHT22;12380;51.118;4.176;2022-10-18T15:54:28;20.80;99.90
24252;DHT22;12380;51.118;4.176;2022-10-18T15:56:57;20.70;99.90
24252;DHT22;12380;51.118;4.176;2022-10-18T15:59:26;20.70;99.90
24252;DHT22;12380;51.118;4.176;2022-10-18T16:01:53;20.60;99.90
24252;DHT22;12380;51.118;4.176;2022-10-18T16:04:29;20.30;99.90
24252;DHT22;12380;51.118;4.176;2022-10-18T16:06:56;20.40;99.90
24252;DHT22;12380;51.118;4.176;2022-10-18T16:09:22;20.10;99.90
24252;DHT22;12380;51.118;4.176;2022-10-18T16:11:48;20.00;99.90
24252;DHT22;12380;51.118;4.176;2022-10-18T16:14:19;19.90;99.90
24252;DHT22;12380;51.118;4.176;2022-10-18T16:16:47;19.80;99.90
24252;DHT22;12380;51.118;4.176;2022-10-18T16:19:16;19.60;99.90
24252;DHT22;12380;51.118;4.176;2022-10-18T16:21:47;19.50;99.90
24252;DHT22;12380;51.118;4.176;2022-10-18T16:24:13;19.50;99.90
24252;DHT22;12380;51.118;4.176;2022-10-18T16:26:38;19.30;99.90
24252;DHT22;12380;51.118;4.176;2022-10-18T16:29:04;19.20;99.90
24252;DHT22;12380;51.118;4.176;2022-10-18T16:31:32;19.00;99.90
24252;DHT22;12380;51.118;4.176;2022-10-18T16:34:02;19.00;99.90
24252;DHT22;12380;51.118;4.176;2022-10-18T16:36:29;18.90;99.90
24252;DHT22;12380;51.118;4.176;2022-10-18T16:38:56;18.90;99.90
24252;DHT22;12380;51.118;4.176;2022-10-18T16:41:22;18.70;99.90
24252;DHT22;12380;51.118;4.176;2022-10-18T16:43:48;18.60;99.90
24252;DHT22;12380;51.118;4.176;2022-10-18T16:46:15;18.50;99.90
24252;DHT22;12380;51.118;4.176;2022-10-18T16:48:44;18.30;99.90
24252;DHT22;12380;51.118;4.176;2022-10-18T16:51:09;18.20;99.90
24252;DHT22;12380;51.118;4.176;2022-10-18T16:53:36;18.20;99.90
24252;DHT22;12380;51.118;4.176;2022-10-18T16:56:03;18.10;99.90
24252;DHT22;12380;51.118;4.176;2022-10-18T16:58:29;17.90;99.90
24252;DHT22;12380;51.118;4.176;2022-10-18T17:00:55;17.80;99.90
24252;DHT22;12380;51.118;4.176;2022-10-18T17:03:21;17.70;99.90
24252;DHT22;12380;51.118;4.176;2022-10-18T17:05:49;17.60;99.90
24252;DHT22;12380;51.118;4.176;2022-10-18T17:08:16;17.40;99.90
24252;DHT22;12380;51.118;4.176;2022-10-18T17:10:43;17.60;99.90
24252;DHT22;12380;51.118;4.176;2022-10-18T17:13:09;17.60;99.90
24252;DHT22;12380;51.118;4.176;2022-10-18T17:15:34;17.50;99.90
24252;DHT22;12380;51.118;4.176;2022-10-18T17:18:00;17.50;99.90
24252;DHT22;12380;51.118;4.176;2022-10-18T17:20:28;17.60;99.90
24252;DHT22;12380;51.118;4.176;2022-10-18T17:22:53;17.30;99.90
24252;DHT22;12380;51.118;4.176;2022-10-18T17:25:19;17.20;99.90
24252;DHT22;12380;51.118;4.176;2022-10-18T17:27:44;17.20;99.90
24252;DHT22;12380;51.118;4.176;2022-10-18T17:30:13;17.30;99.90
24252;DHT22;12380;51.118;4.176;2022-10-18T17:32:39;17.10;99.90
24252;DHT22;12380;51.118;4.176;2022-10-18T17:35:09;16.90;99.90
24252;DHT22;12380;51.118;4.176;2022-10-18T17:37:35;16.80;99.90
24252;DHT22;12380;51.118;4.176;2022-10-18T17:40:02;16.70;99.90
24252;DHT22;12380;51.118;4.176;2022-10-18T17:42:29;16.60;99.90
24252;DHT22;12380;51.118;4.176;2022-10-18T17:44:54;16.40;99.90
24252;DHT22;12380;51.118;4.176;2022-10-18T17:47:20;16.60;99.90
24252;DHT22;12380;51.118;4.176;2022-10-18T17:49:45;16.70;99.90
24252;DHT22;12380;51.118;4.176;2022-10-18T17:52:12;16.60;99.90
24252;DHT22;12380;51.118;4.176;2022-10-18T17:54:38;16.40;99.90
24252;DHT22;12380;51.118;4.176;2022-10-18T17:57:04;16.30;99.90
24252;DHT22;12380;51.118;4.176;2022-10-18T17:59:30;16.40;99.90
24252;DHT22;12380;51.118;4.176;2022-10-18T18:01:55;16.30;99.90
24252;DHT22;12380;51.118;4.176;2022-10-18T18:04:25;16.20;99.90
24252;DHT22;12380;51.118;4.176;2022-10-18T18:06:51;16.00;99.90
24252;DHT22;12380;51.118;4.176;2022-10-18T18:09:21;16.10;99.90
24252;DHT22;12380;51.118;4.176;2022-10-18T18:11:47;16.10;99.90
24252;DHT22;12380;51.118;4.176;2022-10-18T18:14:13;16.00;99.90
24252;DHT22;12380;51.118;4.176;2022-10-18T18:16:41;15.90;99.90
24252;DHT22;12380;51.118;4.176;2022-10-18T18:19:07;15.90;99.90
24252;DHT22;12380;51.118;4.176;2022-10-18T18:21:36;16.20;99.90
24252;DHT22;12380;51.118;4.176;2022-10-18T18:24:02;16.10;99.90
24252;DHT22;12380;51.118;4.176;2022-10-18T18:26:30;16.10;99.90